createdAt,value
2022-10-21T00:00:58.115Z,100.00
2022-10-21T00:03:38.286Z,100.00
2022-10-21T00:06:07.650Z,99.89
2022-10-21T00:08:35.725Z,100.00
2022-10-21T00:11:06.467Z,100.00
2022-10-21T00:13:35.818Z,100.00
2022-10-21T00:16:08.290Z,100.00
2022-10-21T00:18:38.688Z,100.00
2022-10-21T00:21:09.069Z,100.00
2022-10-21T00:23:36.944Z,100.00
2022-10-21T00:26:04.863Z,100.00
2022-10-21T00:28:33.199Z,100.00
2022-10-21T00:31:00.951Z,100.00
2022-10-21T00:33:29.197Z,100.00
2022-10-21T00:36:03.850Z,99.86
2022-10-21T00:38:33.124Z,99.91
2022-10-21T00:41:01.487Z,99.76
2022-10-21T00:43:29.792Z,99.89
2022-10-21T00:46:03.657Z,99.83
2022-10-21T00:48:31.571Z,99.93
2022-10-21T00:51:12.968Z,99.94
2022-10-21T00:53:44.026Z,100.00
2022-10-21T00:56:20.990Z,100.00
2022-10-21T00:58:49.122Z,100.00
2022-10-21T01:01:19.389Z,100.00
2022-10-21T01:03:50.676Z,100.00
2022-10-21T01:06:23.083Z,100.00
2022-10-21T01:08:54.523Z,100.00
2022-10-21T01:11:23.583Z,100.00
2022-10-21T01:14:18.347Z,100.00
2022-10-21T01:16:57.591Z,100.00
2022-10-21T01:19:52.001Z,100.00
2022-10-21T01:22:27.608Z,100.00
2022-10-21T01:25:31.791Z,100.00
2022-10-21T01:28:24.461Z,100.00
2022-10-21T01:30:55.687Z,100.00
2022-10-21T01:33:38.058Z,100.00
2022-10-21T01:36:26.277Z,100.00
2022-10-21T01:39:08.245Z,100.00
2022-10-21T01:41:36.009Z,100.00
2022-10-21T01:44:57.630Z,100.00
2022-10-21T01:47:53.201Z,100.00
2022-10-21T01:50:27.513Z,100.00
2022-10-21T01:53:03.006Z,100.00
2022-10-21T01:55:32.651Z,100.00
2022-10-21T01:58:11.853Z,100.00
2022-10-21T02:00:41.429Z,100.00
2022-10-21T02:03:14.386Z,100.00
2022-10-21T02:05:42.371Z,100.00
2022-10-21T02:08:10.339Z,100.00
2022-10-21T02:10:43.329Z,100.00
2022-10-21T02:13:14.969Z,100.00
2022-10-21T02:15:43.734Z,100.00
2022-10-21T02:18:26.614Z,100.00
2022-10-21T02:20:59.474Z,100.00
2022-10-21T02:23:51.207Z,99.92
2022-10-21T02:26:19.654Z,99.87
2022-10-21T02:28:48.097Z,99.77
2022-10-21T02:31:39.907Z,99.94
2022-10-21T02:34:31.462Z,99.85
2022-10-21T02:37:23.764Z,100.00
2022-10-21T02:40:32.759Z,100.00
2022-10-21T02:43:16.620Z,100.00
2022-10-21T02:45:46.626Z,100.00
2022-10-21T02:48:14.448Z,100.00
2022-10-21T02:50:42.384Z,100.00
2022-10-21T02:53:11.683Z,100.00
2022-10-21T02:55:39.438Z,100.00
2022-10-21T02:58:07.378Z,100.00
2022-10-21T03:00:35.215Z,100.00
2022-10-21T03:03:02.854Z,100.00
2022-10-21T03:08:03.186Z,99.92
2022-10-21T03:10:31.156Z,100.00
2022-10-21T03:12:58.706Z,100.00
2022-10-21T03:15:26.724Z,100.00
2022-10-21T03:17:54.285Z,100.00
2022-10-21T03:20:22.186Z,100.00
2022-10-21T03:22:49.729Z,100.00
2022-10-21T03:25:17.817Z,100.00
2022-10-21T03:27:46.840Z,100.00
2022-10-21T03:30:14.934Z,100.00
2022-10-21T03:32:42.524Z,100.00
2022-10-21T03:35:10.434Z,100.00
2022-10-21T03:37:38.163Z,100.00
2022-10-21T03:40:09.984Z,100.00
2022-10-21T03:42:40.502Z,100.00
2022-10-21T03:45:09.271Z,100.00
2022-10-21T03:47:36.903Z,99.87
2022-10-21T03:50:08.891Z,99.88
2022-10-21T03:52:40.547Z,100.00
2022-10-21T03:55:08.869Z,100.00
2022-10-21T03:57:36.511Z,100.00
2022-10-21T04:00:06.152Z,100.00
2022-10-21T04:02:40.753Z,100.00
2022-10-21T04:05:09.529Z,100.00
2022-10-21T04:07:37.204Z,99.88
2022-10-21T04:10:06.342Z,99.95
2022-10-21T04:12:33.959Z,99.95
2022-10-21T04:15:02.230Z,99.83
2022-10-21T04:17:29.876Z,99.91
2022-10-21T04:19:57.702Z,99.68
2022-10-21T04:22:25.326Z,99.84
2022-10-21T04:24:53.082Z,100.00
2022-10-21T04:27:20.692Z,99.82
2022-10-21T04:29:48.897Z,99.68
2022-10-21T04:32:16.438Z,99.56
2022-10-21T04:34:45.556Z,100.00
2022-10-21T04:37:13.394Z,99.52
2022-10-21T04:39:41.167Z,99.55
2022-10-21T04:42:08.931Z,99.85
2022-10-21T04:44:39.695Z,99.69
2022-10-21T04:47:07.932Z,99.81
2022-10-21T04:49:35.677Z,99.50
2022-10-21T04:52:03.427Z,99.47
2022-10-21T04:54:31.258Z,99.50
2022-10-21T04:56:58.841Z,99.44
2022-10-21T04:59:26.724Z,99.30
2022-10-21T05:01:54.350Z,99.43
2022-10-21T05:04:22.089Z,99.43
2022-10-21T05:06:49.603Z,99.48
2022-10-21T05:09:17.615Z,99.41
2022-10-21T05:11:45.308Z,99.49
2022-10-21T05:14:13.102Z,99.64
2022-10-21T05:16:40.837Z,99.85
2022-10-21T05:19:08.634Z,99.68
2022-10-21T05:24:05.075Z,99.47
2022-10-21T05:26:32.689Z,99.44
2022-10-21T05:29:00.518Z,99.53
2022-10-21T05:31:28.279Z,99.43
2022-10-21T05:33:56.604Z,98.59
2022-10-21T05:36:24.366Z,98.23
2022-10-21T05:38:52.367Z,97.16
2022-10-21T05:41:20.107Z,96.33
2022-10-21T05:43:47.874Z,95.65
2022-10-21T05:46:15.401Z,95.27
2022-10-21T05:48:43.219Z,95.14
2022-10-21T05:51:11.021Z,95.47
2022-10-21T05:53:39.876Z,95.16
2022-10-21T05:56:08.510Z,95.00
2022-10-21T05:58:36.739Z,93.78
2022-10-21T06:01:04.757Z,92.87
2022-10-21T06:03:34.970Z,90.95
2022-10-21T06:06:05.249Z,89.61
2022-10-21T06:08:35.912Z,88.57
2022-10-21T06:11:06.929Z,87.58
2022-10-21T06:13:35.589Z,86.62
2022-10-21T06:18:31.978Z,86.37
2022-10-21T06:21:00.241Z,85.86
2022-10-21T06:23:28.541Z,86.30
2022-10-21T06:26:14.269Z,85.84
2022-10-21T06:28:43.478Z,85.80
2022-10-21T06:31:14.551Z,85.21
2022-10-21T06:33:42.444Z,84.77
2022-10-21T06:36:10.501Z,84.55
2022-10-21T06:38:38.784Z,83.46
2022-10-21T06:41:12.333Z,83.54
2022-10-21T06:43:42.423Z,83.80
2022-10-21T06:46:12.774Z,83.15
2022-10-21T06:48:41.054Z,82.76
2022-10-21T06:51:12.667Z,82.22
2022-10-21T06:53:40.831Z,81.43
2022-10-21T06:56:12.633Z,81.16
2022-10-21T06:58:43.476Z,81.64
2022-10-21T07:01:27.394Z,81.79
2022-10-21T07:04:01.355Z,81.46
2022-10-21T07:06:29.635Z,81.71
2022-10-21T07:08:58.639Z,81.57
2022-10-21T07:11:28.197Z,80.83
2022-10-21T07:13:56.666Z,80.15
2022-10-21T07:16:29.991Z,79.23
2022-10-21T07:18:58.122Z,78.40
2022-10-21T07:21:28.948Z,76.68
2022-10-21T07:23:59.237Z,76.53
2022-10-21T07:26:29.286Z,74.91
2022-10-21T07:28:59.737Z,74.38
2022-10-21T07:31:28.776Z,73.00
2022-10-21T07:33:56.714Z,72.42
2022-10-21T07:36:26.903Z,72.04
2022-10-21T07:38:57.234Z,71.20
2022-10-21T07:41:30.614Z,70.25
2022-10-21T07:43:59.423Z,68.16
2022-10-21T07:46:27.399Z,64.34
2022-10-21T07:48:56.297Z,61.13
2022-10-21T07:51:28.574Z,58.62
2022-10-21T07:54:00.258Z,54.17
2022-10-21T07:56:41.248Z,51.99
2022-10-21T07:59:12.849Z,49.90
2022-10-21T08:01:44.863Z,47.22
2022-10-21T08:04:15.936Z,46.28
2022-10-21T08:06:47.029Z,46.21
2022-10-21T08:09:16.039Z,47.01
2022-10-21T08:11:43.957Z,47.79
2022-10-21T08:14:13.049Z,48.70
2022-10-21T08:16:41.471Z,49.80
2022-10-21T08:19:17.104Z,50.76
2022-10-21T08:21:44.860Z,51.06
2022-10-21T08:24:12.748Z,52.29
2022-10-21T08:26:40.612Z,52.78
2022-10-21T08:29:08.445Z,52.96
2022-10-21T08:31:36.121Z,52.62
2022-10-21T08:34:03.927Z,53.48
2022-10-21T08:36:31.573Z,53.63
2022-10-21T08:38:59.741Z,53.99
2022-10-21T08:41:30.592Z,53.70
2022-10-21T08:44:17.711Z,52.94
2022-10-21T08:46:56.042Z,52.07
2022-10-21T08:49:37.337Z,51.36
2022-10-21T08:52:15.453Z,51.33
2022-10-21T08:54:50.215Z,51.50
2022-10-21T08:57:19.890Z,51.43
2022-10-21T08:59:48.174Z,50.98
2022-10-21T09:02:46.948Z,50.65
2022-10-21T09:05:40.232Z,49.77
2022-10-21T09:08:31.387Z,49.26
2022-10-21T09:11:02.528Z,49.34
2022-10-21T09:13:58.490Z,50.17
2022-10-21T09:16:48.383Z,50.48
2022-10-21T09:19:22.472Z,50.81
2022-10-21T09:22:34.666Z,51.04
2022-10-21T09:25:21.010Z,50.93
2022-10-21T09:27:55.921Z,51.51
2022-10-21T09:30:25.264Z,51.67
2022-10-21T09:32:58.801Z,50.88
2022-10-21T09:35:35.114Z,50.57
2022-10-21T09:38:21.840Z,50.01
2022-10-21T09:40:52.707Z,50.34
2022-10-21T09:43:24.761Z,49.65
2022-10-21T09:45:52.864Z,48.99
2022-10-21T09:48:33.701Z,48.50
2022-10-21T09:51:14.416Z,46.87
2022-10-21T09:53:54.029Z,46.80
2022-10-21T09:56:31.375Z,46.37
2022-10-21T09:59:14.000Z,46.32
2022-10-21T10:01:44.662Z,45.57
2022-10-21T10:04:31.678Z,45.01
2022-10-21T10:07:19.610Z,44.72
2022-10-21T10:09:48.305Z,45.21
2022-10-21T10:12:21.521Z,46.08
2022-10-21T10:14:49.637Z,46.19
2022-10-21T10:17:26.121Z,46.65
2022-10-21T10:20:08.208Z,47.15
2022-10-21T10:22:45.265Z,48.03
2022-10-21T10:25:22.739Z,48.16
2022-10-21T10:27:55.715Z,48.35
2022-10-21T10:30:25.551Z,48.22
2022-10-21T10:32:56.113Z,48.78
2022-10-21T10:35:33.733Z,49.17
2022-10-21T10:38:02.737Z,49.45
2022-10-21T10:40:41.923Z,50.22
2022-10-21T10:43:29.373Z,50.20
2022-10-21T10:46:03.941Z,50.60
2022-10-21T10:48:37.067Z,51.04
2022-10-21T10:51:25.664Z,51.24
2022-10-21T10:54:18.298Z,51.08
2022-10-21T10:56:54.932Z,51.04
2022-10-21T10:59:30.925Z,51.16
2022-10-21T11:02:07.554Z,50.94
2022-10-21T11:04:46.915Z,51.20
2022-10-21T11:07:47.479Z,51.45
2022-10-21T11:10:53.404Z,51.21
2022-10-21T11:13:23.703Z,51.56
2022-10-21T11:16:18.340Z,51.83
2022-10-21T11:19:22.815Z,51.59
2022-10-21T11:22:05.102Z,51.73
2022-10-21T11:25:09.339Z,51.76
2022-10-21T11:27:37.169Z,51.57
2022-10-21T11:30:13.643Z,51.73
2022-10-21T11:33:02.260Z,51.44
2022-10-21T11:35:42.086Z,51.36
2022-10-21T11:38:28.077Z,51.03
2022-10-21T11:41:21.862Z,50.73
2022-10-21T11:44:00.495Z,51.42
2022-10-21T11:46:47.006Z,51.88
2022-10-21T11:49:37.231Z,52.42
2022-10-21T11:52:39.062Z,52.60
2022-10-21T11:55:28.084Z,52.45
2022-10-21T11:58:32.849Z,51.84
2022-10-21T12:01:09.617Z,51.41
2022-10-21T12:03:58.320Z,50.73
2022-10-21T12:06:34.844Z,50.72
2022-10-21T12:09:17.918Z,50.41
2022-10-21T12:12:00.972Z,50.47
2022-10-21T12:14:50.479Z,50.78
2022-10-21T12:17:21.513Z,50.44
2022-10-21T12:20:24.000Z,50.79
2022-10-21T12:23:04.831Z,51.06
2022-10-21T12:25:32.653Z,51.59
2022-10-21T12:28:11.721Z,52.27
2022-10-21T12:30:54.486Z,53.20
2022-10-21T12:33:27.899Z,53.68
2022-10-21T12:36:14.324Z,54.15
2022-10-21T12:38:53.555Z,54.65
2022-10-21T12:41:24.531Z,55.47
2022-10-21T12:43:57.876Z,55.20
2022-10-21T12:46:29.269Z,55.48
2022-10-21T12:49:00.841Z,55.47
2022-10-21T12:51:31.228Z,55.31
2022-10-21T12:54:12.842Z,55.44
2022-10-21T12:56:47.135Z,55.33
2022-10-21T12:59:34.890Z,55.63
2022-10-21T13:02:05.455Z,55.54
2022-10-21T13:04:33.171Z,55.67
2022-10-21T13:07:15.829Z,56.36
2022-10-21T13:09:53.795Z,56.35
2022-10-21T13:12:24.405Z,56.63
2022-10-21T13:14:53.274Z,56.65
2022-10-21T13:17:23.694Z,56.39
2022-10-21T13:19:51.380Z,57.04
2022-10-21T13:22:32.886Z,57.29
2022-10-21T13:25:26.049Z,57.60
2022-10-21T13:27:53.745Z,57.77
2022-10-21T13:30:39.292Z,57.79
2022-10-21T13:33:20.249Z,57.46
2022-10-21T13:35:51.112Z,57.46
2022-10-21T13:38:29.571Z,57.60
2022-10-21T13:41:02.357Z,58.04
2022-10-21T13:43:44.724Z,58.07
2022-10-21T13:46:36.779Z,58.51
2022-10-21T13:49:24.128Z,58.66
2022-10-21T13:51:53.014Z,58.83
2022-10-21T13:54:20.963Z,58.87
2022-10-21T13:56:49.046Z,59.35
2022-10-21T13:59:30.149Z,59.88
2022-10-21T14:01:58.560Z,60.06
2022-10-21T14:04:31.384Z,60.26
2022-10-21T14:07:08.677Z,60.41
2022-10-21T14:09:45.236Z,60.66
2022-10-21T14:12:44.153Z,60.89
2022-10-21T14:15:19.618Z,60.62
2022-10-21T14:17:58.121Z,60.73
2022-10-21T14:20:34.024Z,60.94
2022-10-21T14:23:08.780Z,61.16
2022-10-21T14:25:36.714Z,61.23
2022-10-21T14:28:05.387Z,61.31
2022-10-21T14:30:36.826Z,61.19
2022-10-21T14:33:08.462Z,61.62
2022-10-21T14:35:36.245Z,61.68
2022-10-21T14:38:24.600Z,62.43
2022-10-21T14:41:05.425Z,63.04
2022-10-21T14:43:39.528Z,63.31
2022-10-21T14:46:09.689Z,63.70
2022-10-21T14:48:46.785Z,64.45
2022-10-21T14:51:21.173Z,64.37
2022-10-21T14:53:51.274Z,64.32
2022-10-21T14:56:29.761Z,64.89
2022-10-21T14:59:00.140Z,64.57
2022-10-21T15:01:28.125Z,64.91
2022-10-21T15:03:59.476Z,65.21
2022-10-21T15:06:34.777Z,65.85
2022-10-21T15:09:11.639Z,66.22
2022-10-21T15:11:41.870Z,66.32
2022-10-21T15:14:28.705Z,66.34
2022-10-21T15:16:59.331Z,66.54
2022-10-21T15:19:40.522Z,66.77
2022-10-21T15:22:29.739Z,67.07
2022-10-21T15:25:13.801Z,67.44
2022-10-21T15:27:43.005Z,67.41
2022-10-21T15:30:13.855Z,67.20
2022-10-21T15:32:41.477Z,67.32
2022-10-21T15:35:20.897Z,67.14
2022-10-21T15:37:53.667Z,67.54
2022-10-21T15:40:22.844Z,67.62
2022-10-21T15:42:50.609Z,67.96
2022-10-21T15:45:24.088Z,68.35
2022-10-21T15:47:53.438Z,68.14
2022-10-21T15:50:26.799Z,67.99
2022-10-21T15:55:23.416Z,68.26
2022-10-21T15:57:51.014Z,67.51
2022-10-21T16:00:22.502Z,68.12
2022-10-21T16:02:51.898Z,67.91
2022-10-21T16:05:21.523Z,68.02
2022-10-21T16:07:49.181Z,67.76
2022-10-21T16:10:35.223Z,67.95
2022-10-21T16:13:03.843Z,68.08
2022-10-21T16:15:31.670Z,68.77
2022-10-21T16:18:00.002Z,68.94
2022-10-21T16:20:30.544Z,69.29
2022-10-21T16:23:02.187Z,69.33
2022-10-21T16:25:32.007Z,69.57
2022-10-21T16:28:00.254Z,70.01
2022-10-21T16:30:33.729Z,70.53
2022-10-21T16:33:01.403Z,70.37
2022-10-21T16:35:29.264Z,70.89
2022-10-21T16:37:56.981Z,70.50
2022-10-21T16:40:25.991Z,70.52
2022-10-21T16:42:54.133Z,70.78
2022-10-21T16:45:24.310Z,70.78
2022-10-21T16:47:56.504Z,71.03
2022-10-21T16:50:41.197Z,70.89
2022-10-21T16:53:14.613Z,70.62
2022-10-21T16:55:42.649Z,71.10
2022-10-21T16:58:10.200Z,71.10
2022-10-21T17:00:38.139Z,70.98
2022-10-21T17:03:05.860Z,71.22
2022-10-21T17:08:06.683Z,71.46
2022-10-21T17:10:34.507Z,71.79
2022-10-21T17:13:02.105Z,71.52
2022-10-21T17:15:29.906Z,71.66
2022-10-21T17:17:57.712Z,71.91
2022-10-21T17:20:30.230Z,72.38
2022-10-21T17:22:59.511Z,72.76
2022-10-21T17:25:29.734Z,72.89
2022-10-21T17:27:58.166Z,73.47
2022-10-21T17:30:26.716Z,73.60
2022-10-21T17:32:54.384Z,73.69
2022-10-21T17:35:22.542Z,74.00
2022-10-21T17:37:51.001Z,73.62
2022-10-21T17:40:23.260Z,73.84
2022-10-21T17:42:50.938Z,73.82
2022-10-21T17:45:20.441Z,74.16
2022-10-21T17:47:48.829Z,74.72
2022-10-21T17:50:23.254Z,74.85
2022-10-21T17:52:52.255Z,75.36
2022-10-21T17:55:20.720Z,75.80
2022-10-21T17:57:48.556Z,75.80
2022-10-21T18:00:16.441Z,76.19
2022-10-21T18:02:44.105Z,76.19
2022-10-21T18:05:11.958Z,76.73
2022-10-21T18:07:39.824Z,77.01
2022-10-21T18:10:08.704Z,77.08
2022-10-21T18:12:37.098Z,77.27
2022-10-21T18:15:05.698Z,77.48
2022-10-21T18:17:34.515Z,78.09
2022-10-21T18:20:02.294Z,78.55
2022-10-21T18:22:30.135Z,79.27
2022-10-21T18:24:57.970Z,79.29
2022-10-21T18:27:25.550Z,79.79
2022-10-21T18:29:53.259Z,80.37
2022-10-21T18:32:21.035Z,80.77
2022-10-21T18:34:48.784Z,81.11
2022-10-21T18:37:16.444Z,81.42
2022-10-21T18:39:44.214Z,81.63
2022-10-21T18:42:11.943Z,81.90
2022-10-21T18:44:39.839Z,82.27
2022-10-21T18:47:07.433Z,82.54
2022-10-21T18:49:35.770Z,82.36
2022-10-21T18:52:03.511Z,82.72
2022-10-21T18:54:31.293Z,82.95
2022-10-21T18:56:58.817Z,83.28
2022-10-21T18:59:26.571Z,83.51
2022-10-21T19:01:54.975Z,83.86
2022-10-21T19:04:22.755Z,84.52
2022-10-21T19:06:50.472Z,84.59
2022-10-21T19:09:24.348Z,85.14
2022-10-21T19:11:53.209Z,85.35
2022-10-21T19:14:21.336Z,85.48
2022-10-21T19:16:49.673Z,85.50
2022-10-21T19:19:17.852Z,85.45
2022-10-21T19:21:45.451Z,85.33
2022-10-21T19:24:13.482Z,85.14
2022-10-21T19:26:42.806Z,85.17
2022-10-21T19:29:19.784Z,85.19
2022-10-21T19:34:28.396Z,85.09
2022-10-21T19:36:55.981Z,85.25
2022-10-21T19:39:23.836Z,85.33
2022-10-21T19:41:51.387Z,85.25
2022-10-21T19:44:19.348Z,85.17
2022-10-21T19:46:47.020Z,84.94
2022-10-21T19:49:15.411Z,84.34
2022-10-21T19:51:43.153Z,83.76
2022-10-21T19:54:13.271Z,83.60
2022-10-21T19:56:41.226Z,83.04
2022-10-21T19:59:09.868Z,82.72
2022-10-21T20:01:37.810Z,82.48
2022-10-21T20:04:06.038Z,82.17
2022-10-21T20:06:36.886Z,81.94
2022-10-21T20:09:11.575Z,81.85
2022-10-21T20:11:40.623Z,81.84
2022-10-21T20:14:11.575Z,81.52
2022-10-21T20:16:42.276Z,81.36
2022-10-21T20:19:12.667Z,80.87
2022-10-21T20:21:41.015Z,79.50
2022-10-21T20:24:09.913Z,79.71
2022-10-21T20:29:11.208Z,79.41
2022-10-21T20:31:38.840Z,79.01
2022-10-21T20:34:06.668Z,78.87
2022-10-21T20:36:34.564Z,77.88
2022-10-21T20:39:03.170Z,77.93
2022-10-21T20:41:34.697Z,77.81
2022-10-21T20:44:04.510Z,77.46
2022-10-21T20:46:35.124Z,77.32
2022-10-21T20:49:07.065Z,76.96
2022-10-21T20:51:36.577Z,76.78
2022-10-21T20:54:07.174Z,76.39
2022-10-21T20:56:37.325Z,76.48
2022-10-21T20:59:06.647Z,76.26
2022-10-21T21:01:37.030Z,75.90
2022-10-21T21:04:10.963Z,75.69
2022-10-21T21:06:48.141Z,75.85
2022-10-21T21:12:07.542Z,75.57
2022-10-21T21:14:35.509Z,75.52
2022-10-21T21:17:03.726Z,75.39
2022-10-21T21:19:33.233Z,75.82
2022-10-21T21:22:00.905Z,75.95
2022-10-21T21:24:28.705Z,76.13
2022-10-21T21:26:56.408Z,76.65
2022-10-21T21:29:24.298Z,77.07
2022-10-21T21:31:52.032Z,76.83
2022-10-21T21:34:20.046Z,76.90
2022-10-21T21:36:47.681Z,76.99
2022-10-21T21:41:48.337Z,77.33
2022-10-21T21:44:16.090Z,77.82
2022-10-21T21:46:43.748Z,78.33
2022-10-21T21:49:11.630Z,78.41
2022-10-21T21:51:39.222Z,78.52
2022-10-21T21:54:09.933Z,78.13
2022-10-21T21:56:37.609Z,78.36
2022-10-21T21:59:05.404Z,78.16
2022-10-21T22:01:33.156Z,78.42
2022-10-21T22:04:01.566Z,78.54
2022-10-21T22:06:32.993Z,78.74
2022-10-21T22:09:01.740Z,78.41
2022-10-21T22:11:33.386Z,78.43
2022-10-21T22:14:02.491Z,78.50
2022-10-21T22:16:30.632Z,79.07
2022-10-21T22:19:00.065Z,78.95
2022-10-21T22:21:29.769Z,79.57
2022-10-21T22:23:57.734Z,79.44
2022-10-21T22:26:26.934Z,79.58
2022-10-21T22:28:55.713Z,79.88
2022-10-21T22:31:29.027Z,80.53
2022-10-21T22:34:00.784Z,80.80
2022-10-21T22:36:28.902Z,81.39
2022-10-21T22:38:57.380Z,81.52
2022-10-21T22:41:25.356Z,81.87
2022-10-21T22:43:53.203Z,81.77
2022-10-21T22:46:33.535Z,82.05
2022-10-21T22:49:06.553Z,81.81
2022-10-21T22:51:34.817Z,82.22
2022-10-21T22:54:03.443Z,82.49
2022-10-21T22:56:32.177Z,82.96
2022-10-21T22:59:00.153Z,83.29
2022-10-21T23:01:30.378Z,83.71
2022-10-21T23:04:02.797Z,84.43
2022-10-21T23:06:32.179Z,84.17
2022-10-21T23:09:00.683Z,84.22
2022-10-21T23:11:29.345Z,84.83
2022-10-21T23:14:03.414Z,85.49
2022-10-21T23:16:36.174Z,86.15
2022-10-21T23:19:05.138Z,86.48
2022-10-21T23:21:33.946Z,87.17
2022-10-21T23:24:01.810Z,87.19
2022-10-21T23:26:29.388Z,87.81
2022-10-21T23:28:57.215Z,87.63
2022-10-21T23:31:24.814Z,88.73
2022-10-21T23:33:52.573Z,88.96
2022-10-21T23:36:20.239Z,89.09
2022-10-21T23:38:48.121Z,89.22
2022-10-21T23:41:15.772Z,89.38
2022-10-21T23:43:43.603Z,89.80
2022-10-21T23:46:11.233Z,90.02
2022-10-21T23:48:39.048Z,90.43
2022-10-21T23:51:06.679Z,90.82
2022-10-21T23:53:34.682Z,91.02
2022-10-21T23:56:02.274Z,91.13
2022-10-21T23:58:30.306Z,91.75
